sensor_id;sensor_type;location;lat;lon;timestamp;pressure;altitude;pressure_sealevel;temperature;humidity
16481;BME280;44634;54.110;12.138;2023-11-21T00:01:50;100831.75;;;10.72;100.00
16481;BME280;44634;54.110;12.138;2023-11-21T00:04:18;100848.19;;;10.36;100.00
16481;BME280;44634;54.110;12.138;2023-11-21T00:06:46;100839.19;;;10.48;100.00
16481;BME280;44634;54.110;12.138;2023-11-21T00:09:14;100834.63;;;10.50;100.00
16481;BME280;44634;54.110;12.138;2023-11-21T00:11:44;100843.97;;;10.24;100.00
16481;BME280;44634;54.110;12.138;2023-11-21T00:14:12;100836.69;;;10.47;100.00
16481;BME280;44634;54.110;12.138;2023-11-21T00:16:41;100844.56;;;10.37;100.00
16481;BME280;44634;54.110;12.138;2023-11-21T00:19:11;100851.06;;;10.63;100.00
16481;BME280;44634;54.110;12.138;2023-11-21T00:21:39;100863.25;;;10.45;100.00
16481;BME280;44634;54.110;12.138;2023-11-21T00:24:10;100878.47;;;10.22;100.00
16481;BME280;44634;54.110;12.138;2023-11-21T00:26:40;100857.88;;;10.56;100.00
16481;BME280;44634;54.110;12.138;2023-11-21T00:29:07;100877.03;;;9.76;100.00
16481;BME280;44634;54.110;12.138;2023-11-21T00:31:35;100830.59;;;9.95;100.00
16481;BME280;44634;54.110;12.138;2023-11-21T00:34:03;100828.91;;;9.94;100.00
16481;BME280;44634;54.110;12.138;2023-11-21T00:36:33;100834.03;;;10.16;100.00
16481;BME280;44634;54.110;12.138;2023-11-21T00:39:00;100843.28;;;10.22;100.00
16481;BME280;44634;54.110;12.138;2023-11-21T00:41:28;100847.97;;;10.18;100.00
16481;BME280;44634;54.110;12.138;2023-11-21T00:43:56;100848.34;;;10.34;100.00
16481;BME280;44634;54.110;12.138;2023-11-21T00:46:23;100845.41;;;10.37;100.00
16481;BME280;44634;54.110;12.138;2023-11-21T00:48:53;100861.03;;;10.20;100.00
16481;BME280;44634;54.110;12.138;2023-11-21T00:51:21;100860.19;;;10.19;100.00
16481;BME280;44634;54.110;12.138;2023-11-21T00:53:51;100852.53;;;10.16;100.00
16481;BME280;44634;54.110;12.138;2023-11-21T00:56:19;100847.28;;;9.95;100.00
16481;BME280;44634;54.110;12.138;2023-11-21T00:58:46;100850.72;;;10.17;100.00
16481;BME280;44634;54.110;12.138;2023-11-21T01:01:16;100860.78;;;10.23;100.00
16481;BME280;44634;54.110;12.138;2023-11-21T01:03:44;100861.97;;;9.67;100.00
16481;BME280;44634;54.110;12.138;2023-11-21T01:06:13;100848.38;;;9.51;100.00
16481;BME280;44634;54.110;12.138;2023-11-21T01:08:41;100813.88;;;9.43;100.00
16481;BME280;44634;54.110;12.138;2023-11-21T01:11:11;100812.72;;;9.77;100.00
16481;BME280;44634;54.110;12.138;2023-11-21T01:13:39;100833.31;;;9.63;100.00
16481;BME280;44634;54.110;12.138;2023-11-21T01:16:07;100822.44;;;9.77;100.00
16481;BME280;44634;54.110;12.138;2023-11-21T01:18:36;100816.66;;;9.62;100.00
16481;BME280;44634;54.110;12.138;2023-11-21T01:21:04;100821.53;;;9.46;100.00
16481;BME280;44634;54.110;12.138;2023-11-21T01:23:32;100809.94;;;9.79;100.00
16481;BME280;44634;54.110;12.138;2023-11-21T01:25:59;100831.75;;;9.81;100.00
16481;BME280;44634;54.110;12.138;2023-11-21T01:28:28;100830.88;;;9.71;100.00
16481;BME280;44634;54.110;12.138;2023-11-21T01:30:56;100835.84;;;9.43;100.00
16481;BME280;44634;54.110;12.138;2023-11-21T01:33:24;100857.22;;;10.33;100.00
16481;BME280;44634;54.110;12.138;2023-11-21T01:35:52;100869.31;;;9.64;100.00
16481;BME280;44634;54.110;12.138;2023-11-21T01:38:21;100868.66;;;9.92;100.00
16481;BME280;44634;54.110;12.138;2023-11-21T01:40:49;100880.72;;;9.64;100.00
16481;BME280;44634;54.110;12.138;2023-11-21T01:43:17;100865.31;;;9.48;100.00
16481;BME280;44634;54.110;12.138;2023-11-21T01:45:46;100851.00;;;9.51;100.00
16481;BME280;44634;54.110;12.138;2023-11-21T01:48:14;100877.09;;;10.07;100.00
16481;BME280;44634;54.110;12.138;2023-11-21T01:50:43;100877.44;;;9.72;100.00
16481;BME280;44634;54.110;12.138;2023-11-21T01:53:11;100880.81;;;10.56;100.00
16481;BME280;44634;54.110;12.138;2023-11-21T01:55:41;100911.81;;;10.44;100.00
16481;BME280;44634;54.110;12.138;2023-11-21T01:58:10;100939.81;;;10.26;100.00
16481;BME280;44634;54.110;12.138;2023-11-21T02:00:39;100942.22;;;9.76;100.00
16481;BME280;44634;54.110;12.138;2023-11-21T02:03:07;100945.00;;;9.74;100.00
16481;BME280;44634;54.110;12.138;2023-11-21T02:05:35;100941.25;;;9.77;100.00
16481;BME280;44634;54.110;12.138;2023-11-21T02:08:04;100927.56;;;10.25;100.00
16481;BME280;44634;54.110;12.138;2023-11-21T02:10:32;100954.75;;;10.36;100.00
16481;BME280;44634;54.110;12.138;2023-11-21T02:12:59;100953.66;;;10.18;100.00
16481;BME280;44634;54.110;12.138;2023-11-21T02:15:29;100961.50;;;9.88;100.00
16481;BME280;44634;54.110;12.138;2023-11-21T02:17:57;100937.22;;;9.94;100.00
16481;BME280;44634;54.110;12.138;2023-11-21T02:20:27;100961.22;;;10.53;100.00
16481;BME280;44634;54.110;12.138;2023-11-21T02:22:57;100977.63;;;10.26;100.00
16481;BME280;44634;54.110;12.138;2023-11-21T02:25:27;100971.50;;;9.84;100.00
16481;BME280;44634;54.110;12.138;2023-11-21T02:27:56;100965.84;;;9.57;100.00
16481;BME280;44634;54.110;12.138;2023-11-21T02:30:24;100954.97;;;9.71;100.00
16481;BME280;44634;54.110;12.138;2023-11-21T02:32:54;100950.28;;;10.27;100.00
16481;BME280;44634;54.110;12.138;2023-11-21T02:35:23;100976.84;;;10.14;100.00
16481;BME280;44634;54.110;12.138;2023-11-21T02:37:52;101002.66;;;10.11;100.00
16481;BME280;44634;54.110;12.138;2023-11-21T02:40:22;100987.25;;;9.95;100.00
16481;BME280;44634;54.110;12.138;2023-11-21T02:42:51;100969.38;;;10.40;100.00
16481;BME280;44634;54.110;12.138;2023-11-21T02:45:19;100990.94;;;10.04;100.00
16481;BME280;44634;54.110;12.138;2023-11-21T02:47:47;100977.13;;;9.79;100.00
16481;BME280;44634;54.110;12.138;2023-11-21T02:50:16;100997.75;;;10.59;100.00
16481;BME280;44634;54.110;12.138;2023-11-21T02:52:45;101025.81;;;10.30;100.00
16481;BME280;44634;54.110;12.138;2023-11-21T02:55:13;101037.59;;;10.47;100.00
16481;BME280;44634;54.110;12.138;2023-11-21T02:57:42;101038.97;;;9.66;100.00
16481;BME280;44634;54.110;12.138;2023-11-21T03:00:10;101023.13;;;9.98;100.00
16481;BME280;44634;54.110;12.138;2023-11-21T03:02:39;101020.53;;;10.19;100.00
16481;BME280;44634;54.110;12.138;2023-11-21T03:05:07;101027.28;;;10.23;100.00
16481;BME280;44634;54.110;12.138;2023-11-21T03:07:36;101029.75;;;10.56;100.00
16481;BME280;44634;54.110;12.138;2023-11-21T03:10:05;101052.44;;;10.59;100.00
16481;BME280;44634;54.110;12.138;2023-11-21T03:12:36;101054.28;;;10.26;100.00
16481;BME280;44634;54.110;12.138;2023-11-21T03:15:06;101054.66;;;10.10;100.00
16481;BME280;44634;54.110;12.138;2023-11-21T03:17:34;101041.44;;;10.22;100.00
16481;BME280;44634;54.110;12.138;2023-11-21T03:20:03;101037.66;;;9.71;100.00
16481;BME280;44634;54.110;12.138;2023-11-21T03:22:31;101026.94;;;10.16;100.00
16481;BME280;44634;54.110;12.138;2023-11-21T03:24:59;101044.97;;;9.68;100.00
16481;BME280;44634;54.110;12.138;2023-11-21T03:27:27;101037.03;;;9.79;100.00
16481;BME280;44634;54.110;12.138;2023-11-21T03:29:55;101030.03;;;9.89;100.00
16481;BME280;44634;54.110;12.138;2023-11-21T03:32:24;101037.22;;;9.55;100.00
16481;BME280;44634;54.110;12.138;2023-11-21T03:34:55;101043.34;;;9.99;100.00
16481;BME280;44634;54.110;12.138;2023-11-21T03:37:24;101047.59;;;9.79;100.00
16481;BME280;44634;54.110;12.138;2023-11-21T03:39:54;101065.13;;;9.69;100.00
16481;BME280;44634;54.110;12.138;2023-11-21T03:42:22;101054.47;;;10.02;100.00
16481;BME280;44634;54.110;12.138;2023-11-21T03:44:52;101064.00;;;9.82;100.00
16481;BME280;44634;54.110;12.138;2023-11-21T03:47:19;101070.63;;;9.77;100.00
16481;BME280;44634;54.110;12.138;2023-11-21T03:49:49;101069.44;;;9.81;100.00
16481;BME280;44634;54.110;12.138;2023-11-21T03:52:17;101067.09;;;9.99;100.00
16481;BME280;44634;54.110;12.138;2023-11-21T03:54:45;101075.88;;;9.56;100.00
16481;BME280;44634;54.110;12.138;2023-11-21T03:57:12;101052.28;;;10.07;100.00
16481;BME280;44634;54.110;12.138;2023-11-21T03:59:40;101085.25;;;9.92;100.00
16481;BME280;44634;54.110;12.138;2023-11-21T04:02:08;101073.56;;;10.06;100.00
16481;BME280;44634;54.110;12.138;2023-11-21T04:04:36;101085.69;;;9.97;100.00
16481;BME280;44634;54.110;12.138;2023-11-21T04:07:05;101088.00;;;9.91;100.00
16481;BME280;44634;54.110;12.138;2023-11-21T04:09:33;101100.09;;;9.50;100.00
16481;BME280;44634;54.110;12.138;2023-11-21T04:12:02;101093.56;;;9.76;100.00
16481;BME280;44634;54.110;12.138;2023-11-21T04:14:30;101101.72;;;9.84;100.00
16481;BME280;44634;54.110;12.138;2023-11-21T04:16:58;101114.63;;;9.44;100.00
16481;BME280;44634;54.110;12.138;2023-11-21T04:19:25;101101.38;;;10.21;100.00
16481;BME280;44634;54.110;12.138;2023-11-21T04:21:53;101119.28;;;9.18;100.00
16481;BME280;44634;54.110;12.138;2023-11-21T04:24:22;101117.13;;;9.23;100.00
16481;BME280;44634;54.110;12.138;2023-11-21T04:26:50;101113.66;;;9.34;100.00
16481;BME280;44634;54.110;12.138;2023-11-21T04:29:18;101121.31;;;9.71;100.00
16481;BME280;44634;54.110;12.138;2023-11-21T04:31:45;101131.59;;;8.95;100.00
16481;BME280;44634;54.110;12.138;2023-11-21T04:34:15;101134.88;;;9.66;100.00
16481;BME280;44634;54.110;12.138;2023-11-21T04:36:43;101160.44;;;9.66;100.00
16481;BME280;44634;54.110;12.138;2023-11-21T04:39:10;101147.13;;;9.34;100.00
16481;BME280;44634;54.110;12.138;2023-11-21T04:41:40;101134.66;;;9.69;100.00
16481;BME280;44634;54.110;12.138;2023-11-21T04:44:09;101147.91;;;10.01;100.00
16481;BME280;44634;54.110;12.138;2023-11-21T04:46:36;101167.50;;;9.88;100.00
16481;BME280;44634;54.110;12.138;2023-11-21T04:49:04;101162.72;;;9.37;100.00
16481;BME280;44634;54.110;12.138;2023-11-21T04:51:32;101142.69;;;9.12;100.00
16481;BME280;44634;54.110;12.138;2023-11-21T04:54:00;101124.69;;;9.50;100.00
16481;BME280;44634;54.110;12.138;2023-11-21T04:56:27;101142.50;;;10.03;100.00
16481;BME280;44634;54.110;12.138;2023-11-21T04:58:56;101146.09;;;10.02;100.00
16481;BME280;44634;54.110;12.138;2023-11-21T05:01:24;101162.44;;;9.96;100.00
16481;BME280;44634;54.110;12.138;2023-11-21T05:03:52;101165.84;;;9.64;100.00
16481;BME280;44634;54.110;12.138;2023-11-21T05:06:20;101179.47;;;10.03;100.00
16481;BME280;44634;54.110;12.138;2023-11-21T05:08:48;101174.13;;;9.60;100.00
16481;BME280;44634;54.110;12.138;2023-11-21T05:11:23;101157.69;;;9.45;100.00
16481;BME280;44634;54.110;12.138;2023-11-21T05:13:50;101143.22;;;9.94;100.00
16481;BME280;44634;54.110;12.138;2023-11-21T05:16:20;101182.59;;;9.97;100.00
16481;BME280;44634;54.110;12.138;2023-11-21T05:18:48;101192.97;;;9.44;100.00
16481;BME280;44634;54.110;12.138;2023-11-21T05:21:17;101191.88;;;9.91;100.00
16481;BME280;44634;54.110;12.138;2023-11-21T05:23:47;101196.13;;;10.37;100.00
16481;BME280;44634;54.110;12.138;2023-11-21T05:26:15;101214.91;;;9.67;100.00
16481;BME280;44634;54.110;12.138;2023-11-21T05:28:42;101207.34;;;9.62;100.00
16481;BME280;44634;54.110;12.138;2023-11-21T05:31:10;101192.94;;;9.89;100.00
16481;BME280;44634;54.110;12.138;2023-11-21T05:33:44;101187.66;;;9.77;100.00
16481;BME280;44634;54.110;12.138;2023-11-21T05:36:12;101204.81;;;10.05;100.00
16481;BME280;44634;54.110;12.138;2023-11-21T05:38:39;101228.31;;;10.20;100.00
16481;BME280;44634;54.110;12.138;2023-11-21T05:41:08;101236.16;;;10.21;100.00
16481;BME280;44634;54.110;12.138;2023-11-21T05:43:37;101243.84;;;9.57;100.00
16481;BME280;44634;54.110;12.138;2023-11-21T05:46:05;101228.75;;;9.70;100.00
16481;BME280;44634;54.110;12.138;2023-11-21T05:48:33;101237.47;;;9.48;100.00
16481;BME280;44634;54.110;12.138;2023-11-21T05:51:06;101224.00;;;9.29;100.00
16481;BME280;44634;54.110;12.138;2023-11-21T05:53:34;101201.09;;;9.52;100.00
16481;BME280;44634;54.110;12.138;2023-11-21T05:56:02;101225.09;;;9.38;100.00
16481;BME280;44634;54.110;12.138;2023-11-21T05:58:30;101219.91;;;9.25;100.00
16481;BME280;44634;54.110;12.138;2023-11-21T06:00:58;101215.03;;;9.65;100.00
16481;BME280;44634;54.110;12.138;2023-11-21T06:03:26;101220.06;;;9.68;100.00
16481;BME280;44634;54.110;12.138;2023-11-21T06:05:54;101233.03;;;9.94;100.00
16481;BME280;44634;54.110;12.138;2023-11-21T06:08:23;101230.28;;;9.73;100.00
16481;BME280;44634;54.110;12.138;2023-11-21T06:10:51;101248.75;;;9.50;100.00
16481;BME280;44634;54.110;12.138;2023-11-21T06:13:19;101234.88;;;9.24;100.00
16481;BME280;44634;54.110;12.138;2023-11-21T06:15:50;101218.53;;;9.99;100.00
16481;BME280;44634;54.110;12.138;2023-11-21T06:18:18;101234.72;;;9.72;100.00
16481;BME280;44634;54.110;12.138;2023-11-21T06:20:47;101252.25;;;9.84;100.00
16481;BME280;44634;54.110;12.138;2023-11-21T06:23:14;101254.25;;;9.47;100.00
16481;BME280;44634;54.110;12.138;2023-11-21T06:25:44;101253.56;;;9.90;100.00
16481;BME280;44634;54.110;12.138;2023-11-21T06:28:12;101266.53;;;9.71;100.00
16481;BME280;44634;54.110;12.138;2023-11-21T06:30:43;101280.59;;;9.71;100.00
16481;BME280;44634;54.110;12.138;2023-11-21T06:33:11;101290.56;;;9.90;100.00
16481;BME280;44634;54.110;12.138;2023-11-21T06:35:39;101299.06;;;9.25;100.00
16481;BME280;44634;54.110;12.138;2023-11-21T06:38:07;101275.03;;;9.06;100.00
16481;BME280;44634;54.110;12.138;2023-11-21T06:40:35;101257.06;;;9.22;100.00
16481;BME280;44634;54.110;12.138;2023-11-21T06:43:05;101271.91;;;9.47;100.00
16481;BME280;44634;54.110;12.138;2023-11-21T06:45:33;101284.66;;;9.75;100.00
16481;BME280;44634;54.110;12.138;2023-11-21T06:48:01;101289.75;;;9.32;100.00
16481;BME280;44634;54.110;12.138;2023-11-21T06:50:29;101295.94;;;9.20;100.00
16481;BME280;44634;54.110;12.138;2023-11-21T06:52:57;101285.03;;;9.71;100.00
16481;BME280;44634;54.110;12.138;2023-11-21T06:55:25;101295.56;;;9.82;100.00
16481;BME280;44634;54.110;12.138;2023-11-21T06:57:53;101312.47;;;9.57;100.00
16481;BME280;44634;54.110;12.138;2023-11-21T07:00:22;101308.75;;;9.13;100.00
16481;BME280;44634;54.110;12.138;2023-11-21T07:02:50;101301.19;;;9.66;100.00
16481;BME280;44634;54.110;12.138;2023-11-21T07:05:18;101335.56;;;9.89;100.00
16481;BME280;44634;54.110;12.138;2023-11-21T07:07:48;101339.78;;;9.91;100.00
16481;BME280;44634;54.110;12.138;2023-11-21T07:10:16;101343.44;;;9.55;100.00
16481;BME280;44634;54.110;12.138;2023-11-21T07:12:44;101361.59;;;9.36;100.00
16481;BME280;44634;54.110;12.138;2023-11-21T07:15:12;101349.94;;;9.27;100.00
16481;BME280;44634;54.110;12.138;2023-11-21T07:17:41;101344.97;;;9.46;100.00
16481;BME280;44634;54.110;12.138;2023-11-21T07:20:10;101356.31;;;9.36;100.00
16481;BME280;44634;54.110;12.138;2023-11-21T07:22:38;101360.53;;;9.38;100.00
16481;BME280;44634;54.110;12.138;2023-11-21T07:25:07;101363.28;;;9.83;100.00
16481;BME280;44634;54.110;12.138;2023-11-21T07:27:36;101374.53;;;9.63;100.00
16481;BME280;44634;54.110;12.138;2023-11-21T07:30:04;101364.69;;;9.30;100.00
16481;BME280;44634;54.110;12.138;2023-11-21T07:32:32;101385.94;;;9.39;100.00
16481;BME280;44634;54.110;12.138;2023-11-21T07:35:01;101370.28;;;9.14;100.00
16481;BME280;44634;54.110;12.138;2023-11-21T07:37:30;101349.25;;;9.36;100.00
16481;BME280;44634;54.110;12.138;2023-11-21T07:39:58;101365.31;;;9.79;100.00
16481;BME280;44634;54.110;12.138;2023-11-21T07:42:25;101370.22;;;9.62;100.00
16481;BME280;44634;54.110;12.138;2023-11-21T07:44:53;101368.47;;;9.14;100.00
16481;BME280;44634;54.110;12.138;2023-11-21T07:47:21;101377.84;;;9.42;100.00
16481;BME280;44634;54.110;12.138;2023-11-21T07:49:54;101367.41;;;9.17;100.00
16481;BME280;44634;54.110;12.138;2023-11-21T07:52:25;101375.97;;;9.56;100.00
16481;BME280;44634;54.110;12.138;2023-11-21T07:54:52;101374.19;;;10.47;100.00
16481;BME280;44634;54.110;12.138;2023-11-21T07:57:20;101426.09;;;10.48;100.00
16481;BME280;44634;54.110;12.138;2023-11-21T07:59:48;101450.03;;;10.58;100.00
16481;BME280;44634;54.110;12.138;2023-11-21T08:02:16;101451.66;;;10.25;100.00
16481;BME280;44634;54.110;12.138;2023-11-21T08:04:44;101441.38;;;10.09;100.00
16481;BME280;44634;54.110;12.138;2023-11-21T08:07:12;101443.22;;;9.50;100.00
16481;BME280;44634;54.110;12.138;2023-11-21T08:09:41;101433.66;;;10.30;100.00
16481;BME280;44634;54.110;12.138;2023-11-21T08:12:11;101459.13;;;9.61;100.00
16481;BME280;44634;54.110;12.138;2023-11-21T08:14:38;101452.00;;;9.27;100.00
16481;BME280;44634;54.110;12.138;2023-11-21T08:17:07;101434.66;;;10.05;100.00
16481;BME280;44634;54.110;12.138;2023-11-21T08:19:36;101461.78;;;9.96;100.00
16481;BME280;44634;54.110;12.138;2023-11-21T08:22:04;101466.63;;;9.43;100.00
16481;BME280;44634;54.110;12.138;2023-11-21T08:24:34;101470.41;;;9.63;100.00
16481;BME280;44634;54.110;12.138;2023-11-21T08:27:04;101473.34;;;9.71;100.00
16481;BME280;44634;54.110;12.138;2023-11-21T08:29:33;101480.56;;;9.80;100.00
16481;BME280;44634;54.110;12.138;2023-11-21T08:32:02;101504.69;;;9.76;100.00
16481;BME280;44634;54.110;12.138;2023-11-21T08:34:31;101519.06;;;9.72;100.00
16481;BME280;44634;54.110;12.138;2023-11-21T08:37:00;101500.66;;;9.59;100.00
16481;BME280;44634;54.110;12.138;2023-11-21T08:39:28;101510.75;;;10.24;100.00
16481;BME280;44634;54.110;12.138;2023-11-21T08:41:57;101529.13;;;10.83;100.00
16481;BME280;44634;54.110;12.138;2023-11-21T08:44:26;101539.28;;;9.60;100.00
16481;BME280;44634;54.110;12.138;2023-11-21T08:46:54;101540.84;;;10.10;100.00
16481;BME280;44634;54.110;12.138;2023-11-21T08:49:22;101552.72;;;9.81;100.00
16481;BME280;44634;54.110;12.138;2023-11-21T08:51:52;101557.28;;;10.73;100.00
16481;BME280;44634;54.110;12.138;2023-11-21T08:54:21;101573.28;;;10.36;100.00
16481;BME280;44634;54.110;12.138;2023-11-21T08:56:49;101578.41;;;10.03;100.00
16481;BME280;44634;54.110;12.138;2023-11-21T08:59:17;101589.13;;;10.36;100.00
16481;BME280;44634;54.110;12.138;2023-11-21T09:01:48;101581.31;;;10.35;100.00
16481;BME280;44634;54.110;12.138;2023-11-21T09:04:16;101597.25;;;10.22;100.00
16481;BME280;44634;54.110;12.138;2023-11-21T09:06:42;101597.25;;;10.22;100.00
16481;BME280;44634;54.110;12.138;2023-11-21T09:09:11;101591.44;;;10.41;100.00
16481;BME280;44634;54.110;12.138;2023-11-21T09:11:39;101619.69;;;11.43;100.00
16481;BME280;44634;54.110;12.138;2023-11-21T09:14:07;101630.03;;;12.34;100.00
16481;BME280;44634;54.110;12.138;2023-11-21T09:16:35;101668.22;;;11.77;100.00
16481;BME280;44634;54.110;12.138;2023-11-21T09:19:04;101660.09;;;12.12;100.00
16481;BME280;44634;54.110;12.138;2023-11-21T09:21:32;101670.22;;;12.18;100.00
16481;BME280;44634;54.110;12.138;2023-11-21T09:24:00;101679.69;;;12.64;100.00
16481;BME280;44634;54.110;12.138;2023-11-21T09:26:29;101689.13;;;12.13;100.00
16481;BME280;44634;54.110;12.138;2023-11-21T09:28:57;101700.84;;;11.55;100.00
16481;BME280;44634;54.110;12.138;2023-11-21T09:31:24;101678.88;;;10.86;100.00
16481;BME280;44634;54.110;12.138;2023-11-21T09:33:54;101666.03;;;11.03;100.00
16481;BME280;44634;54.110;12.138;2023-11-21T09:36:25;101672.75;;;10.13;100.00
16481;BME280;44634;54.110;12.138;2023-11-21T09:38:54;101676.63;;;10.21;100.00
16481;BME280;44634;54.110;12.138;2023-11-21T09:41:23;101672.38;;;9.94;100.00
16481;BME280;44634;54.110;12.138;2023-11-21T09:43:56;101689.53;;;10.12;100.00
16481;BME280;44634;54.110;12.138;2023-11-21T09:46:25;101692.59;;;10.67;100.00
16481;BME280;44634;54.110;12.138;2023-11-21T09:48:56;101702.56;;;9.53;100.00
16481;BME280;44634;54.110;12.138;2023-11-21T09:51:29;101709.84;;;9.75;100.00
16481;BME280;44634;54.110;12.138;2023-11-21T09:53:59;101698.13;;;9.54;100.00
16481;BME280;44634;54.110;12.138;2023-11-21T09:56:32;101697.16;;;9.68;100.00
16481;BME280;44634;54.110;12.138;2023-11-21T09:59:01;101707.81;;;9.79;100.00
16481;BME280;44634;54.110;12.138;2023-11-21T10:01:32;101720.69;;;10.33;100.00
16481;BME280;44634;54.110;12.138;2023-11-21T10:04:00;101726.75;;;10.09;100.00
16481;BME280;44634;54.110;12.138;2023-11-21T10:06:30;101718.91;;;10.57;100.00
16481;BME280;44634;54.110;12.138;2023-11-21T10:08:58;101730.56;;;9.43;100.00
16481;BME280;44634;54.110;12.138;2023-11-21T10:11:26;101726.09;;;9.82;100.00
16481;BME280;44634;54.110;12.138;2023-11-21T10:13:54;101725.13;;;9.83;100.00
16481;BME280;44634;54.110;12.138;2023-11-21T10:16:24;101737.03;;;10.14;100.00
16481;BME280;44634;54.110;12.138;2023-11-21T10:18:54;101731.47;;;10.42;100.00
16481;BME280;44634;54.110;12.138;2023-11-21T10:21:38;101738.41;;;10.67;100.00
16481;BME280;44634;54.110;12.138;2023-11-21T10:24:06;101729.25;;;10.36;100.00
16481;BME280;44634;54.110;12.138;2023-11-21T10:26:34;101731.44;;;9.93;100.00
16481;BME280;44634;54.110;12.138;2023-11-21T10:29:16;101746.19;;;9.72;100.00
16481;BME280;44634;54.110;12.138;2023-11-21T10:31:45;101745.22;;;9.73;100.00
16481;BME280;44634;54.110;12.138;2023-11-21T10:34:13;101743.72;;;9.81;100.00
16481;BME280;44634;54.110;12.138;2023-11-21T10:36:43;101744.59;;;10.19;100.00
16481;BME280;44634;54.110;12.138;2023-11-21T10:39:13;101761.16;;;10.46;100.00
16481;BME280;44634;54.110;12.138;2023-11-21T10:41:43;101760.22;;;11.06;100.00
16481;BME280;44634;54.110;12.138;2023-11-21T10:44:13;101775.94;;;10.49;100.00
16481;BME280;44634;54.110;12.138;2023-11-21T10:46:46;101766.13;;;10.01;100.00
16481;BME280;44634;54.110;12.138;2023-11-21T10:49:17;101770.56;;;10.01;100.00
16481;BME280;44634;54.110;12.138;2023-11-21T10:51:47;101767.38;;;9.96;100.00
16481;BME280;44634;54.110;12.138;2023-11-21T10:54:18;101773.22;;;9.63;100.00
16481;BME280;44634;54.110;12.138;2023-11-21T10:56:46;101777.72;;;10.24;100.00
16481;BME280;44634;54.110;12.138;2023-11-21T10:59:17;101790.81;;;10.26;100.00
16481;BME280;44634;54.110;12.138;2023-11-21T11:01:47;101781.72;;;10.30;100.00
16481;BME280;44634;54.110;12.138;2023-11-21T11:04:18;101788.88;;;10.40;100.00
16481;BME280;44634;54.110;12.138;2023-11-21T11:06:48;101793.97;;;10.43;100.00
16481;BME280;44634;54.110;12.138;2023-11-21T11:09:18;101797.78;;;10.63;100.00
16481;BME280;44634;54.110;12.138;2023-11-21T11:11:48;101801.06;;;10.30;100.00
16481;BME280;44634;54.110;12.138;2023-11-21T11:14:15;101790.19;;;10.83;100.00
16481;BME280;44634;54.110;12.138;2023-11-21T11:16:45;101805.09;;;10.60;100.00
16481;BME280;44634;54.110;12.138;2023-11-21T11:19:13;101798.44;;;10.05;100.00
16481;BME280;44634;54.110;12.138;2023-11-21T11:21:46;101801.09;;;9.92;100.00
16481;BME280;44634;54.110;12.138;2023-11-21T11:24:20;101813.69;;;9.76;100.00
16481;BME280;44634;54.110;12.138;2023-11-21T11:26:55;101797.38;;;9.95;100.00
16481;BME280;44634;54.110;12.138;2023-11-21T11:29:27;101809.03;;;10.54;100.00
16481;BME280;44634;54.110;12.138;2023-11-21T11:32:02;101819.03;;;10.25;100.00
16481;BME280;44634;54.110;12.138;2023-11-21T11:34:32;101821.72;;;9.74;100.00
16481;BME280;44634;54.110;12.138;2023-11-21T11:37:04;101814.81;;;10.10;100.00
16481;BME280;44634;54.110;12.138;2023-11-21T11:39:37;101818.75;;;9.41;100.00
16481;BME280;44634;54.110;12.138;2023-11-21T11:42:06;101815.25;;;10.17;100.00
16481;BME280;44634;54.110;12.138;2023-11-21T11:44:49;101818.34;;;10.60;100.00
16481;BME280;44634;54.110;12.138;2023-11-21T11:47:23;101828.25;;;9.81;100.00
16481;BME280;44634;54.110;12.138;2023-11-21T11:50:05;101832.06;;;9.77;100.00
16481;BME280;44634;54.110;12.138;2023-11-21T11:52:35;101833.09;;;9.62;100.00
16481;BME280;44634;54.110;12.138;2023-11-21T11:55:06;101836.69;;;10.25;100.00
16481;BME280;44634;54.110;12.138;2023-11-21T11:57:36;101844.44;;;9.90;100.00
16481;BME280;44634;54.110;12.138;2023-11-21T12:02:52;101859.41;;;11.48;100.00
16481;BME280;44634;54.110;12.138;2023-11-21T12:05:21;101861.59;;;10.59;100.00
16481;BME280;44634;54.110;12.138;2023-11-21T12:07:50;101855.81;;;10.41;100.00
16481;BME280;44634;54.110;12.138;2023-11-21T12:10:21;101864.81;;;10.13;100.00
16481;BME280;44634;54.110;12.138;2023-11-21T12:12:52;101864.50;;;9.92;100.00
16481;BME280;44634;54.110;12.138;2023-11-21T12:15:20;101862.41;;;10.23;100.00
16481;BME280;44634;54.110;12.138;2023-11-21T12:17:48;101866.41;;;9.77;100.00
16481;BME280;44634;54.110;12.138;2023-11-21T12:20:17;101863.94;;;10.12;100.00
16481;BME280;44634;54.110;12.138;2023-11-21T12:22:46;101856.88;;;9.75;100.00
16481;BME280;44634;54.110;12.138;2023-11-21T12:25:15;101850.50;;;9.52;100.00
16481;BME280;44634;54.110;12.138;2023-11-21T12:27:46;101852.53;;;9.48;100.00
16481;BME280;44634;54.110;12.138;2023-11-21T12:30:16;101859.66;;;9.86;100.00
16481;BME280;44634;54.110;12.138;2023-11-21T12:32:48;101859.09;;;10.19;100.00
16481;BME280;44634;54.110;12.138;2023-11-21T12:35:17;101864.22;;;9.32;100.00
16481;BME280;44634;54.110;12.138;2023-11-21T12:37:45;101838.19;;;9.25;100.00
16481;BME280;44634;54.110;12.138;2023-11-21T12:40:14;101850.13;;;9.71;100.00
16481;BME280;44634;54.110;12.138;2023-11-21T12:42:44;101842.59;;;9.52;100.00
16481;BME280;44634;54.110;12.138;2023-11-21T12:45:20;101855.81;;;9.65;100.00
16481;BME280;44634;54.110;12.138;2023-11-21T12:47:49;101864.03;;;9.47;100.00